createdAt,value
2018-03-04T00:02:08.627Z,143.90
2018-03-04T00:04:35.917Z,144.47
2018-03-04T00:07:03.194Z,163.83
2018-03-04T00:09:30.472Z,130.60
2018-03-04T00:11:57.780Z,134.80
2018-03-04T00:14:25.043Z,150.33
2018-03-04T00:16:52.317Z,143.20
2018-03-04T00:19:19.608Z,134.30
2018-03-04T00:21:46.883Z,131.13
2018-03-04T00:24:14.190Z,135.67
2018-03-04T00:26:41.458Z,127.17
2018-03-04T00:29:08.737Z,134.43
2018-03-04T00:31:36.020Z,142.67
2018-03-04T00:34:03.301Z,136.53
2018-03-04T00:36:30.573Z,145.60
2018-03-04T00:38:57.871Z,138.33
2018-03-04T00:41:25.148Z,131.93
2018-03-04T00:43:52.440Z,150.27
2018-03-04T00:46:19.711Z,159.00
2018-03-04T00:48:46.990Z,158.47
2018-03-04T00:51:14.279Z,183.00
2018-03-04T00:53:41.590Z,156.47
2018-03-04T00:56:08.857Z,149.50
2018-03-04T00:58:36.164Z,163.17
2018-03-04T01:01:03.424Z,163.70
2018-03-04T01:03:30.692Z,161.13
2018-03-04T01:05:58.007Z,142.50
2018-03-04T01:08:25.272Z,156.20
2018-03-04T01:10:52.576Z,163.00
2018-03-04T01:13:19.853Z,171.43
2018-03-04T01:15:47.145Z,135.50
2018-03-04T01:18:14.423Z,188.30
2018-03-04T01:20:41.708Z,169.90
2018-03-04T01:23:08.984Z,179.13
2018-03-04T01:25:36.294Z,153.77
2018-03-04T01:28:03.567Z,179.60
2018-03-04T01:30:30.868Z,226.43
2018-03-04T01:32:58.124Z,197.57
2018-03-04T01:35:25.417Z,226.07
2018-03-04T01:37:52.689Z,186.43
2018-03-04T01:40:19.956Z,183.93
2018-03-04T01:42:47.251Z,172.77
2018-03-04T01:45:14.520Z,170.80
2018-03-04T01:47:41.797Z,155.87
2018-03-04T01:50:09.089Z,150.17
2018-03-04T01:52:36.364Z,146.77
2018-03-04T01:55:03.635Z,146.97
2018-03-04T01:57:30.929Z,162.43
2018-03-04T01:59:58.198Z,200.10
2018-03-04T02:02:25.473Z,207.87
2018-03-04T02:04:52.774Z,228.17
2018-03-04T02:07:20.049Z,224.60
2018-03-04T02:09:47.352Z,226.13
2018-03-04T02:12:14.616Z,206.07
2018-03-04T02:14:41.923Z,303.10
2018-03-04T02:17:09.189Z,234.60
2018-03-04T02:19:36.464Z,210.07
2018-03-04T02:22:03.760Z,225.80
2018-03-04T02:24:31.032Z,221.63
2018-03-04T02:26:58.328Z,216.83
2018-03-04T02:29:25.617Z,221.63
2018-03-04T02:31:52.910Z,209.67
2018-03-04T02:34:20.190Z,183.03
2018-03-04T02:36:47.483Z,221.37
2018-03-04T02:39:14.744Z,187.60
2018-03-04T02:41:42.032Z,199.57
2018-03-04T02:44:09.327Z,205.47
2018-03-04T02:46:36.599Z,192.23
2018-03-04T02:49:03.880Z,239.10
2018-03-04T02:51:31.182Z,231.57
2018-03-04T02:53:58.448Z,232.57
2018-03-04T02:56:25.748Z,253.37
2018-03-04T02:58:53.231Z,214.30
2018-03-04T03:01:20.550Z,210.60
2018-03-04T03:03:47.906Z,220.63
2018-03-04T03:06:15.201Z,229.33
2018-03-04T03:08:42.500Z,218.70
2018-03-04T03:11:09.764Z,192.17
2018-03-04T03:13:37.060Z,212.67
2018-03-04T03:16:04.338Z,199.30
2018-03-04T03:18:31.637Z,203.17
2018-03-04T03:20:58.911Z,223.13
2018-03-04T03:23:26.201Z,205.60
2018-03-04T03:25:53.490Z,149.03
2018-03-04T03:28:20.765Z,143.80
2018-03-04T03:30:48.062Z,171.17
2018-03-04T03:33:15.437Z,151.73
2018-03-04T03:35:42.809Z,121.63
2018-03-04T03:38:10.086Z,119.40
2018-03-04T03:40:37.375Z,132.97
2018-03-04T03:43:04.648Z,136.73
2018-03-04T03:45:31.945Z,144.83
2018-03-04T03:47:59.211Z,169.03
2018-03-04T03:50:26.514Z,176.03
2018-03-04T03:52:53.789Z,171.07
2018-03-04T03:55:21.062Z,159.90
2018-03-04T03:57:48.356Z,171.80
2018-03-04T04:00:15.629Z,163.80
2018-03-04T04:02:42.897Z,164.77
2018-03-04T04:05:10.193Z,159.23
2018-03-04T04:07:37.461Z,190.33
2018-03-04T04:10:04.764Z,200.10
2018-03-04T04:12:32.032Z,164.00
2018-03-04T04:14:59.329Z,149.77
2018-03-04T04:17:26.605Z,170.20
2018-03-04T04:19:53.906Z,265.03
2018-03-04T04:22:21.185Z,178.73
2018-03-04T04:24:48.482Z,173.73
2018-03-04T04:27:15.748Z,151.47
2018-03-04T04:29:43.053Z,140.23
2018-03-04T04:32:10.321Z,149.13
2018-03-04T04:34:37.588Z,180.40
2018-03-04T04:37:04.890Z,158.50
2018-03-04T04:39:32.168Z,138.97
2018-03-04T04:41:59.459Z,103.73
2018-03-04T04:44:26.787Z,128.23
2018-03-04T04:46:54.039Z,123.07
2018-03-04T04:49:21.301Z,149.50
2018-03-04T04:51:48.891Z,219.67
2018-03-04T04:54:16.164Z,170.97
2018-03-04T04:56:43.433Z,155.20
2018-03-04T04:59:10.734Z,196.70
2018-03-04T05:01:38.024Z,180.07
2018-03-04T05:04:05.306Z,184.57
2018-03-04T05:06:32.601Z,203.10
2018-03-04T05:08:59.901Z,167.23
2018-03-04T05:11:27.201Z,162.90
2018-03-04T05:13:54.478Z,186.10
2018-03-04T05:16:21.746Z,180.10
2018-03-04T05:18:49.044Z,134.33
2018-03-04T05:21:16.326Z,150.50
2018-03-04T05:23:43.617Z,152.40
2018-03-04T05:26:10.908Z,182.37
2018-03-04T05:28:38.192Z,157.83
2018-03-04T05:31:05.469Z,209.47
2018-03-04T05:33:32.761Z,195.83
2018-03-04T05:36:00.035Z,192.53
2018-03-04T05:38:27.320Z,190.07
2018-03-04T05:40:54.600Z,186.47
2018-03-04T05:43:21.900Z,197.57
2018-03-04T05:45:49.282Z,147.37
2018-03-04T05:48:16.574Z,397.80
2018-03-04T05:50:43.844Z,240.60
2018-03-04T05:53:11.118Z,180.30
2018-03-04T05:55:38.492Z,268.00
2018-03-04T05:58:05.789Z,200.87
2018-03-04T06:00:33.062Z,171.80
2018-03-04T06:03:00.340Z,134.87
2018-03-04T06:05:27.637Z,149.83
2018-03-04T06:07:54.904Z,141.87
2018-03-04T06:10:22.205Z,176.50
2018-03-04T06:12:49.485Z,125.40
2018-03-04T06:15:16.753Z,128.33
2018-03-04T06:17:44.057Z,154.00
2018-03-04T06:20:11.348Z,147.30
2018-03-04T06:22:38.628Z,146.30
2018-03-04T06:25:05.892Z,165.67
2018-03-04T06:27:33.198Z,166.33
2018-03-04T06:30:00.656Z,223.77
2018-03-04T06:32:27.928Z,156.50
2018-03-04T06:34:55.200Z,174.00
2018-03-04T06:37:22.521Z,136.83
2018-03-04T06:39:49.780Z,148.37
2018-03-04T06:42:17.050Z,118.80
2018-03-04T06:44:44.348Z,95.70
2018-03-04T06:47:11.641Z,75.90
2018-03-04T06:49:38.935Z,83.37
2018-03-04T06:52:06.193Z,88.37
2018-03-04T06:54:33.458Z,78.10
2018-03-04T06:57:00.746Z,114.93
2018-03-04T06:59:28.020Z,148.90
2018-03-04T07:01:55.321Z,180.73
2018-03-04T07:04:22.591Z,153.87
2018-03-04T07:06:50.993Z,202.20
2018-03-04T07:09:18.283Z,163.70
2018-03-04T07:11:45.553Z,175.53
2018-03-04T07:14:12.820Z,137.33
2018-03-04T07:16:40.208Z,184.70
2018-03-04T07:19:07.487Z,176.90
2018-03-04T07:21:34.897Z,271.80
2018-03-04T07:24:02.175Z,258.57
2018-03-04T07:26:29.436Z,180.50
2018-03-04T07:28:56.741Z,164.87
2018-03-04T07:31:24.009Z,162.77
2018-03-04T07:33:51.286Z,150.90
2018-03-04T07:36:18.581Z,165.47
2018-03-04T07:38:45.848Z,174.50
2018-03-04T07:41:13.140Z,82.00
2018-03-04T07:43:40.409Z,64.70
2018-03-04T07:46:07.707Z,61.87
2018-03-04T07:48:34.976Z,91.17
2018-03-04T07:51:02.242Z,78.00
2018-03-04T07:53:29.533Z,123.40
2018-03-04T07:55:56.805Z,122.20
2018-03-04T07:58:24.104Z,88.73
2018-03-04T08:00:51.391Z,99.03
2018-03-04T08:03:18.661Z,101.20
2018-03-04T08:05:45.961Z,116.03
2018-03-04T08:08:13.265Z,107.43
2018-03-04T08:10:40.536Z,87.87
2018-03-04T08:13:07.842Z,66.80
2018-03-04T08:15:35.100Z,63.07
2018-03-04T08:18:02.397Z,48.30
2018-03-04T08:20:29.661Z,56.90
2018-03-04T08:22:56.926Z,56.37
2018-03-04T08:25:36.132Z,58.03
2018-03-04T08:28:09.173Z,77.70
2018-03-04T08:30:36.464Z,55.00
2018-03-04T08:33:03.726Z,56.60
2018-03-04T08:35:30.990Z,52.23
2018-03-04T08:37:58.282Z,52.90
2018-03-04T08:40:25.568Z,48.93
2018-03-04T08:42:52.857Z,51.37
2018-03-04T08:45:20.127Z,51.13
2018-03-04T08:47:47.394Z,53.13
2018-03-04T08:50:14.679Z,47.43
2018-03-04T08:52:41.945Z,57.33
2018-03-04T08:55:09.213Z,55.67
2018-03-04T08:57:36.499Z,64.97
2018-03-04T09:00:03.785Z,65.27
2018-03-04T09:02:31.049Z,89.10
2018-03-04T09:04:58.314Z,90.67
2018-03-04T09:07:25.613Z,84.20
2018-03-04T09:09:52.881Z,68.47
2018-03-04T09:12:20.146Z,60.50
2018-03-04T09:14:47.452Z,51.73
2018-03-04T09:17:14.706Z,77.00
2018-03-04T09:19:42.035Z,53.17
2018-03-04T09:22:09.261Z,42.50
2018-03-04T09:24:36.552Z,41.73
2018-03-04T09:27:03.822Z,40.03
2018-03-04T09:29:31.089Z,38.77
2018-03-04T09:31:58.385Z,49.20
2018-03-04T09:34:25.654Z,47.30
2018-03-04T09:36:52.914Z,62.93
2018-03-04T09:39:20.196Z,82.53
2018-03-04T09:41:47.464Z,85.77
2018-03-04T09:44:14.732Z,66.10
2018-03-04T09:46:42.024Z,62.60
2018-03-04T09:49:09.292Z,72.23
2018-03-04T09:51:36.580Z,59.40
2018-03-04T09:54:03.852Z,69.07
2018-03-04T09:56:31.144Z,87.70
2018-03-04T09:58:58.441Z,78.93
2018-03-04T10:01:25.709Z,94.20
2018-03-04T10:03:53.002Z,97.70
2018-03-04T10:06:20.273Z,112.57
2018-03-04T10:08:47.561Z,82.77
2018-03-04T10:11:14.828Z,78.93
2018-03-04T10:13:42.092Z,83.77
2018-03-04T10:16:09.385Z,77.17
2018-03-04T10:18:36.653Z,58.67
2018-03-04T10:21:03.924Z,75.70
2018-03-04T10:23:31.216Z,65.40
2018-03-04T10:25:58.476Z,67.27
2018-03-04T10:28:25.757Z,62.10
2018-03-04T10:30:53.033Z,50.03
2018-03-04T10:33:20.299Z,47.40
2018-03-04T10:35:47.585Z,42.57
2018-03-04T10:38:14.854Z,41.40
2018-03-04T10:40:42.157Z,41.57
2018-03-04T10:43:09.421Z,44.20
2018-03-04T10:45:36.723Z,52.20
2018-03-04T10:48:03.991Z,75.60
2018-03-04T10:50:31.279Z,53.63
2018-03-04T10:52:58.535Z,62.90
2018-03-04T10:55:25.819Z,74.93
2018-03-04T10:57:53.112Z,73.43
2018-03-04T11:00:24.185Z,61.80
2018-03-04T11:02:51.496Z,70.17
2018-03-04T11:05:18.760Z,68.97
2018-03-04T11:07:46.020Z,72.43
2018-03-04T11:10:13.308Z,61.20
2018-03-04T11:12:40.572Z,79.20
2018-03-04T11:15:07.868Z,52.30
2018-03-04T11:17:35.133Z,48.20
2018-03-04T11:20:02.425Z,39.03
2018-03-04T11:22:29.690Z,39.13
2018-03-04T11:24:56.965Z,35.13
2018-03-04T11:27:24.232Z,35.10
2018-03-04T11:29:51.524Z,30.97
2018-03-04T11:32:18.796Z,32.20
2018-03-04T11:34:46.053Z,41.23
2018-03-04T11:37:13.353Z,46.50
2018-03-04T11:39:40.620Z,49.40
2018-03-04T11:42:07.916Z,34.70
2018-03-04T11:44:35.180Z,50.83
2018-03-04T11:47:02.469Z,49.87
2018-03-04T11:49:29.742Z,48.50
2018-03-04T11:51:57.006Z,42.87
2018-03-04T11:54:24.292Z,46.77
2018-03-04T11:56:51.552Z,48.30
2018-03-04T11:59:18.836Z,46.03
2018-03-04T12:01:46.100Z,39.80
2018-03-04T12:04:13.389Z,33.33
2018-03-04T12:06:40.660Z,34.47
2018-03-04T12:09:07.948Z,31.33
2018-03-04T12:11:35.224Z,23.10
2018-03-04T12:14:02.504Z,22.97
2018-03-04T12:16:29.769Z,22.27
2018-03-04T12:18:57.033Z,25.73
2018-03-04T12:21:24.326Z,24.93
2018-03-04T12:23:51.603Z,23.67
2018-03-04T12:26:18.857Z,30.43
2018-03-04T12:28:46.145Z,26.63
2018-03-04T12:31:13.432Z,31.47
2018-03-04T12:33:40.692Z,27.90
2018-03-04T12:36:07.979Z,34.07
2018-03-04T12:38:35.256Z,34.57
2018-03-04T12:41:02.565Z,37.07
2018-03-04T12:43:29.828Z,40.90
2018-03-04T12:45:57.100Z,36.23
2018-03-04T12:48:24.388Z,37.90
2018-03-04T12:50:51.661Z,45.23
2018-03-04T12:53:18.920Z,41.07
2018-03-04T12:55:46.212Z,48.17
2018-03-04T12:58:13.476Z,44.70
2018-03-04T13:00:40.769Z,47.50
2018-03-04T13:03:08.036Z,47.60
2018-03-04T13:05:35.324Z,47.50
2018-03-04T13:08:02.667Z,50.17
2018-03-04T13:10:29.888Z,43.63
2018-03-04T13:12:57.167Z,52.17
2018-03-04T13:15:24.453Z,50.17
2018-03-04T13:17:51.720Z,49.33
2018-03-04T13:20:19.015Z,54.80
2018-03-04T13:22:46.279Z,52.43
2018-03-04T13:25:13.574Z,74.13
2018-03-04T13:27:40.864Z,78.70
2018-03-04T13:30:08.168Z,76.80
2018-03-04T13:32:35.456Z,75.30
2018-03-04T13:35:02.755Z,69.93
2018-03-04T13:37:30.022Z,77.33
2018-03-04T13:39:57.315Z,80.23
2018-03-04T13:42:24.575Z,83.00
2018-03-04T13:44:51.857Z,87.90
2018-03-04T13:47:19.152Z,89.40
2018-03-04T13:49:46.416Z,86.80
2018-03-04T13:52:13.709Z,80.37
2018-03-04T13:54:40.973Z,83.63
2018-03-04T13:57:08.270Z,84.60
2018-03-04T13:59:35.536Z,79.33
2018-03-04T14:02:02.829Z,84.10
2018-03-04T14:04:30.116Z,89.13
2018-03-04T14:06:57.382Z,75.23
2018-03-04T14:09:24.652Z,77.87
2018-03-04T14:11:51.951Z,82.33
2018-03-04T14:14:19.213Z,79.00
2018-03-04T14:16:46.507Z,78.17
2018-03-04T14:19:13.773Z,78.63
2018-03-04T14:21:41.065Z,74.27
2018-03-04T14:24:08.683Z,75.53
2018-03-04T14:26:35.938Z,71.10
2018-03-04T14:29:03.225Z,71.47
2018-03-04T14:31:30.513Z,76.27
2018-03-04T14:33:57.787Z,67.20
2018-03-04T14:36:25.068Z,64.43
2018-03-04T14:38:52.340Z,66.60
2018-03-04T14:41:19.638Z,69.67
2018-03-04T14:43:46.896Z,64.37
2018-03-04T14:46:14.173Z,66.83
2018-03-04T14:48:41.458Z,65.50
2018-03-04T14:51:08.720Z,56.60
2018-03-04T14:53:36.017Z,67.80
2018-03-04T14:56:03.280Z,60.03
2018-03-04T14:58:30.572Z,60.27
2018-03-04T15:00:57.870Z,65.07
2018-03-04T15:03:25.133Z,60.80
2018-03-04T15:05:52.424Z,69.20
2018-03-04T15:08:19.720Z,71.43
2018-03-04T15:10:46.989Z,64.40
2018-03-04T15:13:14.285Z,57.13
2018-03-04T15:15:41.544Z,76.50
2018-03-04T15:18:08.836Z,57.07
2018-03-04T15:20:36.104Z,76.63
2018-03-04T15:23:03.401Z,63.40
2018-03-04T15:25:30.671Z,63.30
2018-03-04T15:27:57.986Z,56.60
2018-03-04T15:30:25.253Z,56.70
2018-03-04T15:32:52.550Z,116.27
2018-03-04T15:35:19.849Z,137.43
2018-03-04T15:37:47.117Z,164.93
2018-03-04T15:40:14.414Z,143.67
2018-03-04T15:42:41.735Z,124.13
2018-03-04T15:45:09.025Z,114.80
2018-03-04T15:47:36.351Z,75.40
2018-03-04T15:50:03.609Z,65.80
2018-03-04T15:52:30.902Z,74.60
2018-03-04T15:54:58.170Z,62.30
2018-03-04T15:57:25.431Z,67.30
2018-03-04T15:59:52.727Z,72.13
2018-03-04T16:02:20.015Z,64.93
2018-03-04T16:04:47.320Z,70.43
2018-03-04T16:07:14.579Z,66.47
2018-03-04T16:09:41.851Z,70.30
2018-03-04T16:12:09.132Z,67.27
2018-03-04T16:14:36.401Z,67.70
2018-03-04T16:17:03.689Z,61.47
2018-03-04T16:19:30.952Z,76.23
2018-03-04T16:21:58.249Z,73.73
2018-03-04T16:24:25.572Z,65.70
2018-03-04T16:26:52.812Z,56.13
2018-03-04T16:29:20.109Z,69.43
2018-03-04T16:31:47.399Z,67.53
2018-03-04T16:34:14.663Z,67.30
2018-03-04T16:36:41.955Z,65.77
2018-03-04T16:39:09.224Z,71.53
2018-03-04T16:41:36.480Z,69.67
2018-03-04T16:44:03.771Z,75.50
2018-03-04T16:46:31.030Z,71.00
2018-03-04T16:48:58.301Z,69.57
2018-03-04T16:51:25.591Z,73.63
2018-03-04T16:53:52.872Z,67.87
2018-03-04T16:56:20.271Z,80.50
2018-03-04T16:58:47.562Z,73.43
2018-03-04T17:01:14.828Z,66.43
2018-03-04T17:03:43.141Z,77.40
2018-03-04T17:06:10.437Z,76.57
2018-03-04T17:08:37.706Z,80.77
2018-03-04T17:11:04.970Z,79.93
2018-03-04T17:13:32.263Z,84.20
2018-03-04T17:15:59.622Z,82.57
2018-03-04T17:18:26.917Z,83.80
2018-03-04T17:20:54.181Z,77.80
2018-03-04T17:23:21.484Z,75.67
2018-03-04T17:25:49.047Z,82.80
2018-03-04T17:28:16.301Z,79.20
2018-03-04T17:30:43.572Z,75.23
2018-03-04T17:33:10.867Z,79.43
2018-03-04T17:35:38.127Z,76.47
2018-03-04T17:38:05.417Z,73.77
2018-03-04T17:40:32.684Z,78.30
2018-03-04T17:42:59.982Z,77.23
2018-03-04T17:45:27.249Z,80.03
2018-03-04T17:47:54.541Z,76.00
2018-03-04T17:50:21.837Z,74.57
2018-03-04T17:52:49.104Z,82.87
2018-03-04T17:55:16.400Z,76.83
2018-03-04T17:57:43.670Z,75.37
2018-03-04T18:00:10.966Z,70.37
2018-03-04T18:02:38.236Z,78.80
2018-03-04T18:05:05.498Z,72.37
2018-03-04T18:07:32.796Z,81.75
2018-03-04T18:10:00.053Z,70.00
2018-03-04T18:12:27.357Z,74.73
2018-03-04T18:14:54.621Z,77.93
2018-03-04T18:17:21.904Z,76.27
2018-03-04T18:19:49.169Z,75.33
2018-03-04T18:22:16.543Z,66.53
2018-03-04T18:24:43.808Z,70.27
2018-03-04T18:27:11.094Z,73.53
2018-03-04T18:29:38.396Z,71.07
2018-03-04T18:32:05.962Z,65.00
2018-03-04T18:34:33.327Z,69.60
2018-03-04T18:37:00.580Z,61.13
2018-03-04T18:39:28.029Z,70.90
2018-03-04T18:41:55.270Z,62.57
2018-03-04T18:44:22.564Z,60.70
2018-03-04T18:46:49.824Z,68.63
2018-03-04T18:49:17.109Z,58.43
2018-03-04T18:51:44.377Z,63.77
2018-03-04T18:54:11.656Z,76.87
2018-03-04T18:56:38.961Z,57.63
2018-03-04T18:59:06.231Z,63.97
2018-03-04T19:01:33.521Z,61.60
2018-03-04T19:04:00.818Z,63.70
2018-03-04T19:06:28.086Z,62.93
2018-03-04T19:08:55.385Z,58.40
2018-03-04T19:11:22.648Z,60.87
2018-03-04T19:13:49.908Z,53.43
2018-03-04T19:16:17.223Z,58.47
2018-03-04T19:18:44.527Z,56.97
2018-03-04T19:21:12.043Z,53.23
2018-03-04T19:23:39.472Z,62.33
2018-03-04T19:26:06.736Z,61.50
2018-03-04T19:28:33.999Z,54.97
2018-03-04T19:31:01.346Z,52.93
2018-03-04T19:33:28.644Z,62.67
2018-03-04T19:35:55.908Z,58.37
2018-03-04T19:38:23.200Z,51.40
2018-03-04T19:40:50.464Z,55.33
2018-03-04T19:43:17.754Z,55.83
2018-03-04T19:45:45.032Z,56.57
2018-03-04T19:48:12.324Z,49.37
2018-03-04T19:50:39.616Z,48.53
2018-03-04T19:53:06.892Z,48.53
2018-03-04T19:55:34.186Z,46.77
2018-03-04T19:58:01.482Z,51.10
2018-03-04T20:00:28.750Z,46.80
2018-03-04T20:02:56.030Z,49.43
2018-03-04T20:05:23.324Z,45.53
2018-03-04T20:07:50.590Z,46.33
2018-03-04T20:10:17.848Z,46.37
2018-03-04T20:12:45.137Z,44.30
2018-03-04T20:15:12.400Z,43.70
2018-03-04T20:17:39.696Z,44.93
2018-03-04T20:20:06.964Z,43.53
2018-03-04T20:22:34.257Z,46.73
2018-03-04T20:25:01.535Z,48.00
2018-03-04T20:27:28.838Z,49.60
2018-03-04T20:29:56.108Z,48.87
2018-03-04T20:32:23.402Z,48.90
2018-03-04T20:34:50.664Z,45.07
2018-03-04T20:37:17.937Z,43.20
2018-03-04T20:39:45.224Z,46.27
2018-03-04T20:42:12.528Z,43.73
2018-03-04T20:44:39.821Z,48.60
2018-03-04T20:47:07.088Z,49.27
2018-03-04T20:49:34.354Z,44.93
2018-03-04T20:52:01.659Z,46.77
2018-03-04T20:54:28.920Z,38.33
2018-03-04T20:56:56.184Z,42.27
2018-03-04T20:59:23.487Z,38.53
2018-03-04T21:01:50.744Z,35.37
2018-03-04T21:04:18.045Z,32.60
2018-03-04T21:06:45.309Z,37.50
2018-03-04T21:09:12.569Z,42.87
2018-03-04T21:11:39.884Z,33.27
2018-03-04T21:14:07.148Z,37.73
2018-03-04T21:16:34.425Z,34.47
2018-03-04T21:19:01.692Z,35.53
2018-03-04T21:21:28.984Z,35.40
2018-03-04T21:23:56.250Z,35.77
2018-03-04T21:26:23.545Z,34.03
2018-03-04T21:28:50.800Z,33.87
2018-03-04T21:31:18.092Z,34.37
2018-03-04T21:33:45.359Z,38.17
2018-03-04T21:36:12.658Z,40.63
2018-03-04T21:38:39.912Z,37.30
2018-03-04T21:41:07.201Z,34.97
2018-03-04T21:43:34.475Z,33.17
2018-03-04T21:46:01.727Z,36.63
2018-03-04T21:48:29.021Z,40.40
2018-03-04T21:50:56.288Z,37.77
2018-03-04T21:53:23.581Z,41.87
2018-03-04T21:55:50.857Z,39.53
2018-03-04T21:58:18.137Z,43.03
2018-03-04T22:00:45.413Z,45.07
2018-03-04T22:03:12.701Z,49.67
2018-03-04T22:05:40.030Z,48.00
2018-03-04T22:08:07.240Z,60.17
2018-03-04T22:10:34.536Z,53.90
2018-03-04T22:13:01.807Z,50.30
2018-03-04T22:15:29.086Z,55.57
2018-03-04T22:17:56.374Z,61.80
2018-03-04T22:20:23.637Z,53.23
2018-03-04T22:22:50.923Z,53.07
2018-03-04T22:25:18.198Z,56.83
2018-03-04T22:27:45.475Z,62.60
2018-03-04T22:30:12.753Z,73.10
2018-03-04T22:32:40.041Z,70.87
2018-03-04T22:35:07.309Z,55.60
2018-03-04T22:37:34.609Z,60.10
2018-03-04T22:40:01.881Z,66.23
2018-03-04T22:42:29.154Z,57.17
2018-03-04T22:44:56.436Z,58.13
2018-03-04T22:47:23.700Z,67.90
2018-03-04T22:49:50.967Z,64.60
2018-03-04T22:52:18.260Z,61.23
2018-03-04T22:54:45.565Z,59.43
2018-03-04T22:57:12.831Z,54.77
2018-03-04T22:59:40.092Z,49.13
2018-03-04T23:02:07.397Z,63.70
2018-03-04T23:04:34.655Z,53.93
2018-03-04T23:07:01.916Z,48.07
2018-03-04T23:09:29.206Z,42.07
2018-03-04T23:11:56.477Z,51.40
2018-03-04T23:14:23.756Z,44.47
2018-03-04T23:16:51.021Z,41.63
2018-03-04T23:19:18.318Z,36.17
2018-03-04T23:21:45.605Z,36.70
2018-03-04T23:24:12.873Z,43.07
2018-03-04T23:26:40.164Z,41.50
2018-03-04T23:29:07.432Z,33.23
2018-03-04T23:31:34.728Z,31.97
2018-03-04T23:34:01.993Z,31.27
2018-03-04T23:36:29.290Z,35.70
2018-03-04T23:38:56.552Z,25.07
2018-03-04T23:41:23.845Z,25.60
2018-03-04T23:43:51.099Z,39.63
2018-03-04T23:46:18.396Z,24.20
2018-03-04T23:48:45.655Z,25.07
2018-03-04T23:51:12.936Z,25.63
2018-03-04T23:53:40.228Z,23.47
2018-03-04T23:56:07.490Z,28.70
2018-03-04T23:58:34.762Z,22.30
